sensor_id;sensor_type;location;lat;lon;timestamp;P1;durP1;ratioP1;P2;durP2;ratioP2
23394;SDS011;11870;53.084;18.206;2023-08-21T00:01:18;18.98;;;14.18;;
23394;SDS011;11870;53.084;18.206;2023-08-21T00:03:45;18.73;;;14.15;;
23394;SDS011;11870;53.084;18.206;2023-08-21T00:06:11;21.63;;;14.10;;
23394;SDS011;11870;53.084;18.206;2023-08-21T00:08:38;20.67;;;13.52;;
23394;SDS011;11870;53.084;18.206;2023-08-21T00:11:04;21.08;;;14.07;;
23394;SDS011;11870;53.084;18.206;2023-08-21T00:13:31;16.58;;;13.48;;
23394;SDS011;11870;53.084;18.206;2023-08-21T00:15:57;19.40;;;13.15;;
23394;SDS011;11870;53.084;18.206;2023-08-21T00:18:24;18.30;;;14.07;;
23394;SDS011;11870;53.084;18.206;2023-08-21T00:20:50;17.52;;;13.57;;
23394;SDS011;11870;53.084;18.206;2023-08-21T00:23:17;17.45;;;13.80;;
23394;SDS011;11870;53.084;18.206;2023-08-21T00:25:45;17.25;;;13.63;;
23394;SDS011;11870;53.084;18.206;2023-08-21T00:28:12;18.85;;;14.00;;
23394;SDS011;11870;53.084;18.206;2023-08-21T00:30:39;19.08;;;13.60;;
23394;SDS011;11870;53.084;18.206;2023-08-21T00:33:05;18.58;;;14.07;;
23394;SDS011;11870;53.084;18.206;2023-08-21T00:38:12;16.58;;;12.82;;
23394;SDS011;11870;53.084;18.206;2023-08-21T00:40:38;17.80;;;13.93;;
23394;SDS011;11870;53.084;18.206;2023-08-21T00:43:05;18.30;;;12.98;;
23394;SDS011;11870;53.084;18.206;2023-08-21T00:45:31;20.27;;;14.02;;
23394;SDS011;11870;53.084;18.206;2023-08-21T00:47:58;21.08;;;14.48;;
23394;SDS011;11870;53.084;18.206;2023-08-21T00:50:34;18.48;;;13.35;;
23394;SDS011;11870;53.084;18.206;2023-08-21T00:53:01;21.10;;;14.25;;
23394;SDS011;11870;53.084;18.206;2023-08-21T00:55:28;19.83;;;14.20;;
23394;SDS011;11870;53.084;18.206;2023-08-21T00:57:55;21.83;;;13.88;;
23394;SDS011;11870;53.084;18.206;2023-08-21T01:00:22;20.75;;;14.60;;
23394;SDS011;11870;53.084;18.206;2023-08-21T01:02:49;17.13;;;12.80;;
23394;SDS011;11870;53.084;18.206;2023-08-21T01:05:17;23.95;;;15.40;;
23394;SDS011;11870;53.084;18.206;2023-08-21T01:07:48;17.38;;;12.68;;
23394;SDS011;11870;53.084;18.206;2023-08-21T01:10:18;18.08;;;13.70;;
23394;SDS011;11870;53.084;18.206;2023-08-21T01:12:48;18.60;;;13.45;;
23394;SDS011;11870;53.084;18.206;2023-08-21T01:15:16;17.80;;;13.30;;
23394;SDS011;11870;53.084;18.206;2023-08-21T01:17:43;15.30;;;12.88;;
23394;SDS011;11870;53.084;18.206;2023-08-21T01:20:12;20.25;;;13.27;;
23394;SDS011;11870;53.084;18.206;2023-08-21T01:22:39;17.98;;;12.20;;
23394;SDS011;11870;53.084;18.206;2023-08-21T01:25:07;19.45;;;13.45;;
23394;SDS011;11870;53.084;18.206;2023-08-21T01:27:36;17.58;;;12.48;;
23394;SDS011;11870;53.084;18.206;2023-08-21T01:30:06;17.45;;;12.65;;
23394;SDS011;11870;53.084;18.206;2023-08-21T01:32:50;17.50;;;12.68;;
23394;SDS011;11870;53.084;18.206;2023-08-21T01:35:23;23.52;;;13.20;;
23394;SDS011;11870;53.084;18.206;2023-08-21T01:37:53;18.63;;;12.75;;
23394;SDS011;11870;53.084;18.206;2023-08-21T01:40:23;18.60;;;13.10;;
23394;SDS011;11870;53.084;18.206;2023-08-21T01:42:51;16.73;;;12.25;;
23394;SDS011;11870;53.084;18.206;2023-08-21T01:45:18;18.10;;;12.95;;
23394;SDS011;11870;53.084;18.206;2023-08-21T01:47:53;18.70;;;13.90;;
23394;SDS011;11870;53.084;18.206;2023-08-21T01:50:29;17.88;;;13.20;;
23394;SDS011;11870;53.084;18.206;2023-08-21T01:52:55;19.92;;;13.10;;
23394;SDS011;11870;53.084;18.206;2023-08-21T01:55:24;18.95;;;13.18;;
23394;SDS011;11870;53.084;18.206;2023-08-21T01:57:54;18.70;;;13.15;;
23394;SDS011;11870;53.084;18.206;2023-08-21T02:00:26;18.70;;;13.98;;
23394;SDS011;11870;53.084;18.206;2023-08-21T02:02:53;19.20;;;13.52;;
23394;SDS011;11870;53.084;18.206;2023-08-21T02:05:19;21.50;;;15.27;;
23394;SDS011;11870;53.084;18.206;2023-08-21T02:07:45;21.23;;;14.80;;
23394;SDS011;11870;53.084;18.206;2023-08-21T02:10:12;19.52;;;14.20;;
23394;SDS011;11870;53.084;18.206;2023-08-21T02:12:39;20.45;;;14.52;;
23394;SDS011;11870;53.084;18.206;2023-08-21T02:15:05;20.42;;;13.90;;
23394;SDS011;11870;53.084;18.206;2023-08-21T02:17:32;20.48;;;14.20;;
23394;SDS011;11870;53.084;18.206;2023-08-21T02:19:58;20.63;;;13.88;;
23394;SDS011;11870;53.084;18.206;2023-08-21T02:22:25;20.27;;;13.73;;
23394;SDS011;11870;53.084;18.206;2023-08-21T02:24:51;21.58;;;14.45;;
23394;SDS011;11870;53.084;18.206;2023-08-21T02:27:18;21.70;;;13.85;;
23394;SDS011;11870;53.084;18.206;2023-08-21T02:29:44;22.25;;;13.98;;
23394;SDS011;11870;53.084;18.206;2023-08-21T02:32:11;20.70;;;14.38;;
23394;SDS011;11870;53.084;18.206;2023-08-21T02:34:37;20.45;;;14.75;;
23394;SDS011;11870;53.084;18.206;2023-08-21T02:37:05;20.95;;;14.18;;
23394;SDS011;11870;53.084;18.206;2023-08-21T02:39:34;19.08;;;13.63;;
23394;SDS011;11870;53.084;18.206;2023-08-21T02:42:11;22.98;;;14.65;;
23394;SDS011;11870;53.084;18.206;2023-08-21T02:44:40;19.67;;;14.07;;
23394;SDS011;11870;53.084;18.206;2023-08-21T02:47:07;20.70;;;14.52;;
23394;SDS011;11870;53.084;18.206;2023-08-21T02:49:33;21.55;;;13.75;;
23394;SDS011;11870;53.084;18.206;2023-08-21T02:52:00;25.27;;;13.63;;
23394;SDS011;11870;53.084;18.206;2023-08-21T02:54:29;22.10;;;13.68;;
23394;SDS011;11870;53.084;18.206;2023-08-21T02:56:58;20.95;;;12.85;;
23394;SDS011;11870;53.084;18.206;2023-08-21T02:59:24;21.10;;;14.30;;
23394;SDS011;11870;53.084;18.206;2023-08-21T03:01:51;20.33;;;13.27;;
23394;SDS011;11870;53.084;18.206;2023-08-21T03:04:18;21.02;;;13.90;;
23394;SDS011;11870;53.084;18.206;2023-08-21T03:06:44;18.30;;;13.10;;
23394;SDS011;11870;53.084;18.206;2023-08-21T03:09:14;22.55;;;13.40;;
23394;SDS011;11870;53.084;18.206;2023-08-21T03:11:41;24.08;;;14.77;;
23394;SDS011;11870;53.084;18.206;2023-08-21T03:14:07;24.25;;;13.05;;
23394;SDS011;11870;53.084;18.206;2023-08-21T03:16:34;21.38;;;12.57;;
23394;SDS011;11870;53.084;18.206;2023-08-21T03:19:00;22.30;;;12.65;;
23394;SDS011;11870;53.084;18.206;2023-08-21T03:21:27;20.23;;;12.55;;
23394;SDS011;11870;53.084;18.206;2023-08-21T03:23:57;24.80;;;11.98;;
23394;SDS011;11870;53.084;18.206;2023-08-21T03:26:25;20.88;;;12.35;;
23394;SDS011;11870;53.084;18.206;2023-08-21T03:28:51;20.52;;;11.55;;
23394;SDS011;11870;53.084;18.206;2023-08-21T03:31:23;21.83;;;12.38;;
23394;SDS011;11870;53.084;18.206;2023-08-21T03:33:49;17.35;;;11.52;;
23394;SDS011;11870;53.084;18.206;2023-08-21T03:36:16;20.98;;;12.57;;
23394;SDS011;11870;53.084;18.206;2023-08-21T03:38:42;19.52;;;11.57;;
23394;SDS011;11870;53.084;18.206;2023-08-21T03:41:11;17.98;;;12.25;;
23394;SDS011;11870;53.084;18.206;2023-08-21T03:43:37;20.17;;;11.57;;
23394;SDS011;11870;53.084;18.206;2023-08-21T03:46:04;22.42;;;12.05;;
23394;SDS011;11870;53.084;18.206;2023-08-21T03:48:33;22.30;;;13.02;;
23394;SDS011;11870;53.084;18.206;2023-08-21T03:51:02;25.05;;;13.07;;
23394;SDS011;11870;53.084;18.206;2023-08-21T03:53:28;22.35;;;12.60;;
23394;SDS011;11870;53.084;18.206;2023-08-21T03:55:57;19.88;;;12.32;;
23394;SDS011;11870;53.084;18.206;2023-08-21T03:58:24;19.88;;;11.52;;
23394;SDS011;11870;53.084;18.206;2023-08-21T04:00:59;21.42;;;12.55;;
23394;SDS011;11870;53.084;18.206;2023-08-21T04:03:33;23.73;;;11.38;;
23394;SDS011;11870;53.084;18.206;2023-08-21T04:06:01;23.10;;;13.55;;
23394;SDS011;11870;53.084;18.206;2023-08-21T04:08:30;23.02;;;12.48;;
23394;SDS011;11870;53.084;18.206;2023-08-21T04:10:56;24.08;;;12.13;;
23394;SDS011;11870;53.084;18.206;2023-08-21T04:13:25;25.55;;;13.68;;
23394;SDS011;11870;53.084;18.206;2023-08-21T04:15:53;23.10;;;12.48;;
23394;SDS011;11870;53.084;18.206;2023-08-21T04:18:20;28.30;;;14.23;;
23394;SDS011;11870;53.084;18.206;2023-08-21T04:20:47;25.77;;;15.27;;
23394;SDS011;11870;53.084;18.206;2023-08-21T04:23:14;29.98;;;15.50;;
23394;SDS011;11870;53.084;18.206;2023-08-21T04:25:41;34.65;;;18.08;;
23394;SDS011;11870;53.084;18.206;2023-08-21T04:28:08;30.35;;;16.67;;
23394;SDS011;11870;53.084;18.206;2023-08-21T04:30:39;29.45;;;14.25;;
23394;SDS011;11870;53.084;18.206;2023-08-21T04:33:06;18.92;;;12.35;;
23394;SDS011;11870;53.084;18.206;2023-08-21T04:35:37;12.15;;;8.75;;
23394;SDS011;11870;53.084;18.206;2023-08-21T04:38:03;13.15;;;7.50;;
23394;SDS011;11870;53.084;18.206;2023-08-21T04:40:30;17.17;;;6.38;;
23394;SDS011;11870;53.084;18.206;2023-08-21T04:42:56;9.75;;;6.60;;
23394;SDS011;11870;53.084;18.206;2023-08-21T04:45:23;8.98;;;5.63;;
23394;SDS011;11870;53.084;18.206;2023-08-21T04:47:49;11.43;;;6.03;;
23394;SDS011;11870;53.084;18.206;2023-08-21T04:50:16;9.20;;;5.00;;
23394;SDS011;11870;53.084;18.206;2023-08-21T04:52:42;7.78;;;5.00;;
23394;SDS011;11870;53.084;18.206;2023-08-21T04:55:09;8.77;;;5.35;;
23394;SDS011;11870;53.084;18.206;2023-08-21T04:57:35;7.13;;;4.65;;
23394;SDS011;11870;53.084;18.206;2023-08-21T05:00:01;6.30;;;4.40;;
23394;SDS011;11870;53.084;18.206;2023-08-21T05:02:29;9.35;;;4.75;;
23394;SDS011;11870;53.084;18.206;2023-08-21T05:04:55;10.00;;;4.63;;
23394;SDS011;11870;53.084;18.206;2023-08-21T05:07:21;8.65;;;5.07;;
23394;SDS011;11870;53.084;18.206;2023-08-21T05:09:48;16.27;;;11.35;;
23394;SDS011;11870;53.084;18.206;2023-08-21T05:12:14;8.65;;;6.47;;
23394;SDS011;11870;53.084;18.206;2023-08-21T05:14:40;6.18;;;3.97;;
23394;SDS011;11870;53.084;18.206;2023-08-21T05:17:07;6.35;;;4.18;;
23394;SDS011;11870;53.084;18.206;2023-08-21T05:19:33;5.57;;;3.65;;
23394;SDS011;11870;53.084;18.206;2023-08-21T05:21:59;6.03;;;4.00;;
23394;SDS011;11870;53.084;18.206;2023-08-21T05:24:26;6.68;;;3.97;;
23394;SDS011;11870;53.084;18.206;2023-08-21T05:26:52;5.40;;;4.13;;
23394;SDS011;11870;53.084;18.206;2023-08-21T05:29:18;7.18;;;3.92;;
23394;SDS011;11870;53.084;18.206;2023-08-21T05:31:45;5.53;;;3.67;;
23394;SDS011;11870;53.084;18.206;2023-08-21T05:34:11;9.88;;;3.63;;
23394;SDS011;11870;53.084;18.206;2023-08-21T05:36:37;5.38;;;3.35;;
23394;SDS011;11870;53.084;18.206;2023-08-21T05:39:04;6.22;;;3.53;;
23394;SDS011;11870;53.084;18.206;2023-08-21T05:41:31;5.53;;;3.35;;
23394;SDS011;11870;53.084;18.206;2023-08-21T05:43:57;4.00;;;3.20;;
23394;SDS011;11870;53.084;18.206;2023-08-21T05:46:23;5.75;;;3.70;;
23394;SDS011;11870;53.084;18.206;2023-08-21T05:48:50;7.00;;;3.25;;
23394;SDS011;11870;53.084;18.206;2023-08-21T05:51:16;5.45;;;3.15;;
23394;SDS011;11870;53.084;18.206;2023-08-21T05:53:42;4.25;;;3.08;;
23394;SDS011;11870;53.084;18.206;2023-08-21T05:56:09;5.47;;;3.25;;
23394;SDS011;11870;53.084;18.206;2023-08-21T05:58:35;4.82;;;3.05;;
23394;SDS011;11870;53.084;18.206;2023-08-21T06:01:01;5.00;;;3.35;;
23394;SDS011;11870;53.084;18.206;2023-08-21T06:03:28;6.32;;;3.70;;
23394;SDS011;11870;53.084;18.206;2023-08-21T06:05:54;8.35;;;4.90;;
23394;SDS011;11870;53.084;18.206;2023-08-21T06:08:20;7.45;;;3.20;;
23394;SDS011;11870;53.084;18.206;2023-08-21T06:10:50;4.38;;;3.03;;
23394;SDS011;11870;53.084;18.206;2023-08-21T06:13:17;6.78;;;3.50;;
23394;SDS011;11870;53.084;18.206;2023-08-21T06:15:43;6.90;;;3.17;;
23394;SDS011;11870;53.084;18.206;2023-08-21T06:18:10;5.40;;;2.92;;
23394;SDS011;11870;53.084;18.206;2023-08-21T06:20:37;7.18;;;3.03;;
23394;SDS011;11870;53.084;18.206;2023-08-21T06:23:03;3.70;;;2.47;;
23394;SDS011;11870;53.084;18.206;2023-08-21T06:25:29;4.85;;;3.10;;
23394;SDS011;11870;53.084;18.206;2023-08-21T06:27:56;6.50;;;2.92;;
23394;SDS011;11870;53.084;18.206;2023-08-21T06:30:22;3.90;;;2.67;;
23394;SDS011;11870;53.084;18.206;2023-08-21T06:32:49;3.20;;;2.88;;
23394;SDS011;11870;53.084;18.206;2023-08-21T06:35:15;3.65;;;2.67;;
23394;SDS011;11870;53.084;18.206;2023-08-21T06:37:41;8.75;;;6.90;;
23394;SDS011;11870;53.084;18.206;2023-08-21T06:40:08;6.95;;;3.83;;
23394;SDS011;11870;53.084;18.206;2023-08-21T06:42:34;4.93;;;3.70;;
23394;SDS011;11870;53.084;18.206;2023-08-21T06:45:02;5.13;;;2.72;;
23394;SDS011;11870;53.084;18.206;2023-08-21T06:47:30;4.80;;;3.30;;
23394;SDS011;11870;53.084;18.206;2023-08-21T06:49:56;3.25;;;2.25;;
23394;SDS011;11870;53.084;18.206;2023-08-21T06:52:22;6.38;;;2.75;;
23394;SDS011;11870;53.084;18.206;2023-08-21T06:54:49;4.47;;;2.58;;
23394;SDS011;11870;53.084;18.206;2023-08-21T06:57:15;4.68;;;2.45;;
23394;SDS011;11870;53.084;18.206;2023-08-21T06:59:41;5.20;;;2.25;;
23394;SDS011;11870;53.084;18.206;2023-08-21T07:02:07;5.43;;;2.50;;
23394;SDS011;11870;53.084;18.206;2023-08-21T07:04:33;5.70;;;2.80;;
23394;SDS011;11870;53.084;18.206;2023-08-21T07:07:00;4.55;;;2.03;;
23394;SDS011;11870;53.084;18.206;2023-08-21T07:09:26;2.83;;;2.20;;
23394;SDS011;11870;53.084;18.206;2023-08-21T07:11:52;3.97;;;2.58;;
23394;SDS011;11870;53.084;18.206;2023-08-21T07:14:19;3.03;;;2.20;;
23394;SDS011;11870;53.084;18.206;2023-08-21T07:16:45;3.55;;;2.30;;
23394;SDS011;11870;53.084;18.206;2023-08-21T07:19:11;2.92;;;2.40;;
23394;SDS011;11870;53.084;18.206;2023-08-21T07:21:37;3.58;;;2.30;;
23394;SDS011;11870;53.084;18.206;2023-08-21T07:24:03;3.50;;;2.15;;
23394;SDS011;11870;53.084;18.206;2023-08-21T07:26:30;3.35;;;2.20;;
23394;SDS011;11870;53.084;18.206;2023-08-21T07:28:56;3.05;;;2.15;;
23394;SDS011;11870;53.084;18.206;2023-08-21T07:31:22;2.10;;;1.90;;
23394;SDS011;11870;53.084;18.206;2023-08-21T07:33:49;2.78;;;2.22;;
23394;SDS011;11870;53.084;18.206;2023-08-21T07:36:15;3.60;;;2.30;;
23394;SDS011;11870;53.084;18.206;2023-08-21T07:38:44;3.38;;;2.10;;
23394;SDS011;11870;53.084;18.206;2023-08-21T07:41:11;3.78;;;2.50;;
23394;SDS011;11870;53.084;18.206;2023-08-21T07:43:39;2.50;;;2.08;;
23394;SDS011;11870;53.084;18.206;2023-08-21T07:46:07;2.95;;;2.08;;
23394;SDS011;11870;53.084;18.206;2023-08-21T07:48:35;4.28;;;2.22;;
23394;SDS011;11870;53.084;18.206;2023-08-21T07:51:02;3.47;;;2.20;;
23394;SDS011;11870;53.084;18.206;2023-08-21T07:53:28;3.72;;;2.05;;
23394;SDS011;11870;53.084;18.206;2023-08-21T07:55:57;4.30;;;2.30;;
23394;SDS011;11870;53.084;18.206;2023-08-21T07:58:23;4.20;;;2.00;;
23394;SDS011;11870;53.084;18.206;2023-08-21T08:00:50;2.75;;;2.40;;
23394;SDS011;11870;53.084;18.206;2023-08-21T08:03:16;2.30;;;2.10;;
23394;SDS011;11870;53.084;18.206;2023-08-21T08:05:42;5.07;;;2.53;;
23394;SDS011;11870;53.084;18.206;2023-08-21T08:08:09;3.05;;;2.45;;
23394;SDS011;11870;53.084;18.206;2023-08-21T08:10:39;2.92;;;2.50;;
23394;SDS011;11870;53.084;18.206;2023-08-21T08:13:05;3.30;;;2.05;;
23394;SDS011;11870;53.084;18.206;2023-08-21T08:15:32;4.07;;;2.38;;
23394;SDS011;11870;53.084;18.206;2023-08-21T08:18:00;4.45;;;2.50;;
23394;SDS011;11870;53.084;18.206;2023-08-21T08:20:27;4.75;;;2.53;;
23394;SDS011;11870;53.084;18.206;2023-08-21T08:22:53;3.63;;;2.30;;
23394;SDS011;11870;53.084;18.206;2023-08-21T08:25:20;3.80;;;2.13;;
23394;SDS011;11870;53.084;18.206;2023-08-21T08:27:46;2.58;;;2.20;;
23394;SDS011;11870;53.084;18.206;2023-08-21T08:30:13;8.35;;;2.50;;
23394;SDS011;11870;53.084;18.206;2023-08-21T08:32:40;3.10;;;2.30;;
23394;SDS011;11870;53.084;18.206;2023-08-21T08:35:12;5.38;;;2.30;;
23394;SDS011;11870;53.084;18.206;2023-08-21T08:37:40;6.80;;;2.65;;
23394;SDS011;11870;53.084;18.206;2023-08-21T08:40:10;3.78;;;2.60;;
23394;SDS011;11870;53.084;18.206;2023-08-21T08:42:36;4.95;;;2.50;;
23394;SDS011;11870;53.084;18.206;2023-08-21T08:45:03;3.00;;;2.45;;
23394;SDS011;11870;53.084;18.206;2023-08-21T08:47:33;3.58;;;2.50;;
23394;SDS011;11870;53.084;18.206;2023-08-21T08:50:04;5.95;;;2.53;;
23394;SDS011;11870;53.084;18.206;2023-08-21T08:52:34;4.22;;;2.50;;
23394;SDS011;11870;53.084;18.206;2023-08-21T08:55:01;2.40;;;2.20;;
23394;SDS011;11870;53.084;18.206;2023-08-21T08:57:28;4.18;;;2.67;;
23394;SDS011;11870;53.084;18.206;2023-08-21T08:59:55;4.30;;;2.80;;
23394;SDS011;11870;53.084;18.206;2023-08-21T09:02:21;4.35;;;2.67;;
23394;SDS011;11870;53.084;18.206;2023-08-21T09:04:47;2.70;;;2.50;;
23394;SDS011;11870;53.084;18.206;2023-08-21T09:07:16;3.60;;;2.60;;
23394;SDS011;11870;53.084;18.206;2023-08-21T09:09:47;3.15;;;2.60;;
23394;SDS011;11870;53.084;18.206;2023-08-21T09:12:18;5.13;;;2.58;;
23394;SDS011;11870;53.084;18.206;2023-08-21T09:14:46;2.95;;;2.47;;
23394;SDS011;11870;53.084;18.206;2023-08-21T09:17:15;3.20;;;2.45;;
23394;SDS011;11870;53.084;18.206;2023-08-21T09:19:42;2.38;;;2.17;;
23394;SDS011;11870;53.084;18.206;2023-08-21T09:22:08;3.92;;;2.38;;
23394;SDS011;11870;53.084;18.206;2023-08-21T09:24:39;4.97;;;2.45;;
23394;SDS011;11870;53.084;18.206;2023-08-21T09:27:12;2.92;;;2.60;;
23394;SDS011;11870;53.084;18.206;2023-08-21T09:29:40;4.03;;;3.63;;
23394;SDS011;11870;53.084;18.206;2023-08-21T09:32:07;4.50;;;2.97;;
23394;SDS011;11870;53.084;18.206;2023-08-21T09:34:37;3.67;;;2.80;;
23394;SDS011;11870;53.084;18.206;2023-08-21T09:37:06;2.80;;;2.55;;
23394;SDS011;11870;53.084;18.206;2023-08-21T09:39:37;6.13;;;2.60;;
23394;SDS011;11870;53.084;18.206;2023-08-21T09:42:06;4.95;;;2.50;;
23394;SDS011;11870;53.084;18.206;2023-08-21T09:44:37;3.85;;;2.40;;
23394;SDS011;11870;53.084;18.206;2023-08-21T09:47:04;3.10;;;2.42;;
23394;SDS011;11870;53.084;18.206;2023-08-21T09:49:34;2.72;;;2.40;;
23394;SDS011;11870;53.084;18.206;2023-08-21T09:52:02;3.55;;;2.70;;
23394;SDS011;11870;53.084;18.206;2023-08-21T09:54:31;4.65;;;2.42;;
23394;SDS011;11870;53.084;18.206;2023-08-21T09:57:00;2.70;;;2.50;;
23394;SDS011;11870;53.084;18.206;2023-08-21T09:59:28;3.88;;;2.38;;
23394;SDS011;11870;53.084;18.206;2023-08-21T10:01:55;3.97;;;2.70;;
23394;SDS011;11870;53.084;18.206;2023-08-21T10:04:23;2.95;;;2.47;;
23394;SDS011;11870;53.084;18.206;2023-08-21T10:06:51;2.75;;;2.38;;
23394;SDS011;11870;53.084;18.206;2023-08-21T10:09:19;2.63;;;2.40;;
23394;SDS011;11870;53.084;18.206;2023-08-21T10:11:46;4.15;;;2.70;;
23394;SDS011;11870;53.084;18.206;2023-08-21T10:14:14;3.80;;;2.40;;
23394;SDS011;11870;53.084;18.206;2023-08-21T10:16:40;3.53;;;2.30;;
23394;SDS011;11870;53.084;18.206;2023-08-21T10:19:07;2.28;;;1.88;;
23394;SDS011;11870;53.084;18.206;2023-08-21T10:21:36;3.25;;;1.85;;
23394;SDS011;11870;53.084;18.206;2023-08-21T10:24:03;3.25;;;1.80;;
23394;SDS011;11870;53.084;18.206;2023-08-21T10:26:29;3.90;;;2.05;;
23394;SDS011;11870;53.084;18.206;2023-08-21T10:28:58;3.58;;;1.70;;
23394;SDS011;11870;53.084;18.206;2023-08-21T10:34:00;4.43;;;1.60;;
23394;SDS011;11870;53.084;18.206;2023-08-21T10:39:18;3.17;;;1.60;;
23394;SDS011;11870;53.084;18.206;2023-08-21T10:50:07;2.88;;;1.35;;
23394;SDS011;11870;53.084;18.206;2023-08-21T10:55:05;3.42;;;1.60;;
23394;SDS011;11870;53.084;18.206;2023-08-21T10:57:32;3.97;;;1.77;;
23394;SDS011;11870;53.084;18.206;2023-08-21T11:00:08;6.47;;;2.70;;
23394;SDS011;11870;53.084;18.206;2023-08-21T11:02:40;6.35;;;3.70;;
23394;SDS011;11870;53.084;18.206;2023-08-21T11:05:08;4.20;;;2.60;;
23394;SDS011;11870;53.084;18.206;2023-08-21T11:07:39;3.78;;;2.22;;
23394;SDS011;11870;53.084;18.206;2023-08-21T11:10:09;4.78;;;1.80;;
23394;SDS011;11870;53.084;18.206;2023-08-21T11:12:36;5.35;;;1.83;;
23394;SDS011;11870;53.084;18.206;2023-08-21T11:15:03;2.72;;;1.60;;
23394;SDS011;11870;53.084;18.206;2023-08-21T11:17:29;6.95;;;1.70;;
23394;SDS011;11870;53.084;18.206;2023-08-21T11:19:55;4.38;;;1.70;;
23394;SDS011;11870;53.084;18.206;2023-08-21T11:22:27;4.85;;;1.65;;
23394;SDS011;11870;53.084;18.206;2023-08-21T11:24:55;4.53;;;1.48;;
23394;SDS011;11870;53.084;18.206;2023-08-21T11:27:21;4.60;;;1.67;;
23394;SDS011;11870;53.084;18.206;2023-08-21T11:29:49;4.55;;;1.60;;
23394;SDS011;11870;53.084;18.206;2023-08-21T11:32:19;3.15;;;1.60;;
23394;SDS011;11870;53.084;18.206;2023-08-21T11:34:54;4.78;;;2.08;;
23394;SDS011;11870;53.084;18.206;2023-08-21T11:37:21;4.93;;;1.67;;
23394;SDS011;11870;53.084;18.206;2023-08-21T11:39:52;2.50;;;1.70;;
23394;SDS011;11870;53.084;18.206;2023-08-21T11:42:21;3.92;;;1.77;;
23394;SDS011;11870;53.084;18.206;2023-08-21T11:44:51;4.63;;;1.90;;
23394;SDS011;11870;53.084;18.206;2023-08-21T11:47:19;2.67;;;1.70;;
23394;SDS011;11870;53.084;18.206;2023-08-21T11:49:48;4.43;;;1.75;;
23394;SDS011;11870;53.084;18.206;2023-08-21T11:52:19;3.63;;;1.95;;
23394;SDS011;11870;53.084;18.206;2023-08-21T11:54:49;3.83;;;2.15;;
23394;SDS011;11870;53.084;18.206;2023-08-21T11:57:16;6.25;;;1.95;;
23394;SDS011;11870;53.084;18.206;2023-08-21T11:59:43;4.90;;;2.10;;
23394;SDS011;11870;53.084;18.206;2023-08-21T12:02:22;4.38;;;1.83;;
23394;SDS011;11870;53.084;18.206;2023-08-21T12:05:13;7.25;;;1.80;;
23394;SDS011;11870;53.084;18.206;2023-08-21T12:07:39;3.03;;;1.70;;
23394;SDS011;11870;53.084;18.206;2023-08-21T12:10:06;4.20;;;1.98;;
23394;SDS011;11870;53.084;18.206;2023-08-21T12:12:32;8.27;;;1.90;;
23394;SDS011;11870;53.084;18.206;2023-08-21T12:14:58;4.32;;;2.22;;
23394;SDS011;11870;53.084;18.206;2023-08-21T12:17:25;3.10;;;1.90;;
23394;SDS011;11870;53.084;18.206;2023-08-21T12:19:51;3.40;;;1.90;;
23394;SDS011;11870;53.084;18.206;2023-08-21T12:22:17;3.65;;;2.00;;
23394;SDS011;11870;53.084;18.206;2023-08-21T12:24:44;4.78;;;1.90;;
23394;SDS011;11870;53.084;18.206;2023-08-21T12:27:10;4.68;;;2.25;;
23394;SDS011;11870;53.084;18.206;2023-08-21T12:29:36;5.68;;;1.77;;
23394;SDS011;11870;53.084;18.206;2023-08-21T12:32:03;3.67;;;1.70;;
23394;SDS011;11870;53.084;18.206;2023-08-21T12:34:29;4.85;;;1.75;;
23394;SDS011;11870;53.084;18.206;2023-08-21T12:36:55;3.60;;;1.90;;
23394;SDS011;11870;53.084;18.206;2023-08-21T12:39:22;5.82;;;1.95;;
23394;SDS011;11870;53.084;18.206;2023-08-21T12:41:48;4.55;;;1.90;;
23394;SDS011;11870;53.084;18.206;2023-08-21T12:44:15;3.75;;;1.90;;
23394;SDS011;11870;53.084;18.206;2023-08-21T12:46:41;6.72;;;2.00;;
23394;SDS011;11870;53.084;18.206;2023-08-21T12:49:08;5.05;;;1.90;;
23394;SDS011;11870;53.084;18.206;2023-08-21T12:51:34;3.08;;;1.67;;
23394;SDS011;11870;53.084;18.206;2023-08-21T12:54:00;3.95;;;2.20;;
23394;SDS011;11870;53.084;18.206;2023-08-21T12:56:26;4.05;;;1.60;;
23394;SDS011;11870;53.084;18.206;2023-08-21T12:58:53;4.07;;;2.13;;
23394;SDS011;11870;53.084;18.206;2023-08-21T13:01:19;6.78;;;1.98;;
23394;SDS011;11870;53.084;18.206;2023-08-21T13:03:46;2.78;;;1.80;;
23394;SDS011;11870;53.084;18.206;2023-08-21T13:06:12;3.53;;;2.10;;
23394;SDS011;11870;53.084;18.206;2023-08-21T13:08:39;3.63;;;1.80;;
23394;SDS011;11870;53.084;18.206;2023-08-21T13:11:05;6.13;;;1.80;;
23394;SDS011;11870;53.084;18.206;2023-08-21T13:13:32;5.57;;;2.08;;
23394;SDS011;11870;53.084;18.206;2023-08-21T13:15:58;5.18;;;2.10;;
23394;SDS011;11870;53.084;18.206;2023-08-21T13:18:26;7.35;;;1.83;;
23394;SDS011;11870;53.084;18.206;2023-08-21T13:20:52;4.18;;;2.20;;
23394;SDS011;11870;53.084;18.206;2023-08-21T13:23:18;2.88;;;1.90;;
23394;SDS011;11870;53.084;18.206;2023-08-21T13:25:45;5.22;;;2.40;;
23394;SDS011;11870;53.084;18.206;2023-08-21T13:28:11;5.38;;;2.03;;
23394;SDS011;11870;53.084;18.206;2023-08-21T13:30:37;6.13;;;2.10;;
23394;SDS011;11870;53.084;18.206;2023-08-21T13:33:04;10.68;;;2.30;;
23394;SDS011;11870;53.084;18.206;2023-08-21T13:35:30;5.18;;;2.00;;
23394;SDS011;11870;53.084;18.206;2023-08-21T13:37:57;6.25;;;2.45;;
23394;SDS011;11870;53.084;18.206;2023-08-21T13:40:24;6.32;;;2.08;;
23394;SDS011;11870;53.084;18.206;2023-08-21T13:42:50;6.38;;;2.00;;
23394;SDS011;11870;53.084;18.206;2023-08-21T13:45:17;4.72;;;2.15;;
23394;SDS011;11870;53.084;18.206;2023-08-21T13:47:45;5.75;;;2.42;;
23394;SDS011;11870;53.084;18.206;2023-08-21T13:50:16;6.55;;;2.20;;
23394;SDS011;11870;53.084;18.206;2023-08-21T13:52:43;3.10;;;2.28;;
23394;SDS011;11870;53.084;18.206;2023-08-21T13:55:09;5.18;;;2.00;;
23394;SDS011;11870;53.084;18.206;2023-08-21T13:57:36;5.07;;;2.17;;
23394;SDS011;11870;53.084;18.206;2023-08-21T14:00:03;7.78;;;2.25;;
23394;SDS011;11870;53.084;18.206;2023-08-21T14:02:33;4.00;;;2.20;;
23394;SDS011;11870;53.084;18.206;2023-08-21T14:05:00;5.07;;;2.20;;
23394;SDS011;11870;53.084;18.206;2023-08-21T14:07:27;4.38;;;2.22;;
23394;SDS011;11870;53.084;18.206;2023-08-21T14:09:53;3.08;;;2.10;;
23394;SDS011;11870;53.084;18.206;2023-08-21T14:12:19;6.60;;;2.10;;
23394;SDS011;11870;53.084;18.206;2023-08-21T14:14:46;5.22;;;2.45;;
23394;SDS011;11870;53.084;18.206;2023-08-21T14:17:12;6.70;;;2.25;;
23394;SDS011;11870;53.084;18.206;2023-08-21T14:19:38;4.32;;;2.25;;
23394;SDS011;11870;53.084;18.206;2023-08-21T14:22:05;2.85;;;2.17;;
23394;SDS011;11870;53.084;18.206;2023-08-21T14:24:31;3.00;;;1.90;;
23394;SDS011;11870;53.084;18.206;2023-08-21T14:26:57;5.70;;;2.10;;
23394;SDS011;11870;53.084;18.206;2023-08-21T14:29:24;5.82;;;2.00;;
23394;SDS011;11870;53.084;18.206;2023-08-21T14:31:50;7.72;;;2.33;;
23394;SDS011;11870;53.084;18.206;2023-08-21T14:34:18;3.05;;;1.98;;
23394;SDS011;11870;53.084;18.206;2023-08-21T14:36:46;3.47;;;2.10;;
23394;SDS011;11870;53.084;18.206;2023-08-21T14:39:13;5.38;;;2.70;;
23394;SDS011;11870;53.084;18.206;2023-08-21T14:41:43;4.13;;;1.98;;
23394;SDS011;11870;53.084;18.206;2023-08-21T14:44:09;6.22;;;2.40;;
23394;SDS011;11870;53.084;18.206;2023-08-21T14:46:36;3.95;;;2.00;;